createdAt,value
2022-10-12T00:00:11.461Z,10.177
2022-10-12T00:01:10.784Z,10.1841
2022-10-12T00:02:11.495Z,10.166
2022-10-12T00:03:13.138Z,10.171
2022-10-12T00:04:09.763Z,10.1327
2022-10-12T00:05:11.574Z,10.163
2022-10-12T00:06:11.386Z,10.16
2022-10-12T00:07:11.833Z,10.144
2022-10-12T00:08:11.109Z,10.11
2022-10-12T00:09:10.105Z,10.11
2022-10-12T00:10:11.015Z,10.095
2022-10-12T00:11:11.380Z,10.075
2022-10-12T00:12:10.983Z,10.06
2022-10-12T00:13:11.763Z,10.023
2022-10-12T00:14:10.097Z,10.005
2022-10-12T00:15:10.954Z,9.983
2022-10-12T00:16:11.482Z,9.967
2022-10-12T00:17:11.587Z,9.9454
2022-10-12T00:18:10.695Z,9.96
2022-10-12T00:19:10.823Z,9.94
2022-10-12T00:20:11.364Z,9.9127
2022-10-12T00:21:11.172Z,9.915
2022-10-12T00:22:11.277Z,9.899
2022-10-12T00:23:10.544Z,9.8683
2022-10-12T00:24:10.123Z,9.828
2022-10-12T00:25:11.575Z,9.805
2022-10-12T00:26:11.407Z,9.816
2022-10-12T00:27:10.750Z,9.816
2022-10-12T00:28:11.558Z,9.795
2022-10-12T00:29:10.521Z,9.775
2022-10-12T00:30:10.030Z,9.765
2022-10-12T00:31:11.457Z,9.76
2022-10-12T00:32:10.917Z,9.74
2022-10-12T00:33:10.905Z,9.694
2022-10-12T00:34:10.593Z,9.6783
2022-10-12T00:35:11.230Z,9.649
2022-10-12T00:36:10.824Z,9.649
2022-10-12T00:37:11.170Z,9.644
2022-10-12T00:38:10.620Z,9.6258
2022-10-12T00:39:10.520Z,9.58
2022-10-12T00:40:10.981Z,9.59
2022-10-12T00:41:11.037Z,9.575
2022-10-12T00:42:11.409Z,9.555
2022-10-12T00:43:11.148Z,9.52
2022-10-12T00:44:10.062Z,9.495
2022-10-12T00:45:11.082Z,9.495
2022-10-12T00:46:11.149Z,9.475
2022-10-12T00:47:11.122Z,9.435
2022-10-12T00:48:11.337Z,9.41
2022-10-12T00:49:10.568Z,9.389
2022-10-12T00:50:11.329Z,9.3741
2022-10-12T00:51:11.117Z,9.3791
2022-10-12T00:52:10.958Z,9.339
2022-10-12T00:53:10.087Z,9.327
2022-10-12T00:54:10.795Z,9.285
2022-10-12T00:55:14.153Z,9.3
2022-10-12T00:56:12.592Z,9.27
2022-10-12T00:57:11.262Z,9.275
2022-10-12T00:58:10.751Z,9.25
2022-10-12T00:59:11.627Z,9.25
2022-10-12T01:00:11.250Z,9.25
2022-10-12T01:01:10.142Z,9.28
2022-10-12T01:02:11.379Z,9.265
2022-10-12T01:03:10.564Z,9.255
2022-10-12T01:04:11.008Z,9.24
2022-10-12T01:05:11.431Z,9.24
2022-10-12T01:06:11.051Z,9.255
2022-10-12T01:07:11.642Z,9.235
2022-10-12T01:08:11.436Z,9.235
2022-10-12T01:09:09.594Z,9.21
2022-10-12T01:10:11.878Z,9.188
2022-10-12T01:11:10.865Z,9.1891
2022-10-12T01:12:11.707Z,9.166
2022-10-12T01:13:11.044Z,9.1208
2022-10-12T01:14:11.007Z,9.11
2022-10-12T01:15:11.631Z,9.137
2022-10-12T01:16:10.568Z,9.12
2022-10-12T01:17:11.775Z,9.11
2022-10-12T01:18:10.925Z,9.1
2022-10-12T01:19:10.211Z,9.08
2022-10-12T01:20:11.780Z,9.08
2022-10-12T01:21:10.601Z,9.055
2022-10-12T01:22:10.941Z,9.055
2022-10-12T01:23:11.554Z,9.04
2022-10-12T01:24:10.443Z,9.045
2022-10-12T01:25:11.238Z,9.01
2022-10-12T01:26:10.957Z,9.025
2022-10-12T01:27:11.027Z,8.995
2022-10-12T01:28:10.403Z,9.015
2022-10-12T01:29:10.460Z,8.99
2022-10-12T01:30:11.375Z,8.945
2022-10-12T01:31:11.346Z,8.929
2022-10-12T01:32:11.774Z,8.903
2022-10-12T01:33:11.105Z,8.8683
2022-10-12T01:34:09.481Z,8.88
2022-10-12T01:35:11.396Z,8.847
2022-10-12T01:36:10.233Z,8.848
2022-10-12T01:37:10.638Z,8.85
2022-10-12T01:38:11.365Z,8.8158
2022-10-12T01:39:10.230Z,8.827
2022-10-12T01:40:10.845Z,8.8158
2022-10-12T01:41:11.413Z,8.805
2022-10-12T01:42:10.541Z,8.795
2022-10-12T01:43:11.605Z,8.7684
2022-10-12T01:44:10.228Z,8.7718
2022-10-12T01:45:11.147Z,8.765
2022-10-12T01:46:11.670Z,8.75
2022-10-12T01:47:11.194Z,8.745
2022-10-12T01:48:10.993Z,8.755
2022-10-12T01:49:10.984Z,8.73
2022-10-12T01:50:10.358Z,8.705
2022-10-12T01:51:11.471Z,8.7
2022-10-12T01:52:11.100Z,8.688
2022-10-12T01:53:11.175Z,8.643
2022-10-12T01:54:10.475Z,8.615
2022-10-12T01:55:11.134Z,8.6
2022-10-12T01:56:10.884Z,8.58
2022-10-12T01:57:11.823Z,8.555
2022-10-12T01:58:11.328Z,8.55
2022-10-12T01:59:10.155Z,8.57
2022-10-12T02:00:11.676Z,8.56
2022-10-12T02:01:11.268Z,8.55
2022-10-12T02:02:10.960Z,8.525
2022-10-12T02:03:11.849Z,8.495
2022-10-12T02:04:10.850Z,8.495
2022-10-12T02:05:11.463Z,8.47
2022-10-12T02:06:11.433Z,8.46
2022-10-12T02:07:11.487Z,8.46
2022-10-12T02:08:11.071Z,8.44
2022-10-12T02:09:10.916Z,8.4
2022-10-12T02:10:11.271Z,8.3791
2022-10-12T02:11:10.702Z,8.345
2022-10-12T02:12:11.328Z,8.339
2022-10-12T02:13:11.193Z,8.355
2022-10-12T02:14:09.899Z,8.345
2022-10-12T02:15:12.801Z,8.333
2022-10-12T02:16:11.333Z,8.316
2022-10-12T02:17:11.130Z,8.3
2022-10-12T02:18:11.621Z,8.295
2022-10-12T02:19:10.183Z,8.29
2022-10-12T02:20:10.417Z,8.295
2022-10-12T02:21:11.333Z,8.27
2022-10-12T02:22:10.657Z,8.245
2022-10-12T02:23:10.662Z,8.245
2022-10-12T02:24:10.482Z,8.23
2022-10-12T02:25:11.171Z,8.195
2022-10-12T02:26:11.665Z,8.188
2022-10-12T02:27:11.385Z,8.1841
2022-10-12T02:28:10.882Z,8.194
2022-10-12T02:29:11.043Z,8.166
2022-10-12T02:30:11.198Z,8.137
2022-10-12T02:31:11.253Z,8.165
2022-10-12T02:32:11.017Z,8.137
2022-10-12T02:33:11.684Z,8.07
2022-10-12T02:34:10.129Z,8.06
2022-10-12T02:35:12.698Z,8.045
2022-10-12T02:36:11.442Z,8.015
2022-10-12T02:37:11.018Z,8.025
2022-10-12T02:38:11.288Z,8.035
2022-10-12T02:39:10.218Z,8.025
2022-10-12T02:40:10.898Z,8.02
2022-10-12T02:41:11.653Z,7.995
2022-10-12T02:42:10.540Z,7.99
2022-10-12T02:43:11.508Z,7.97
2022-10-12T02:44:10.278Z,8.015
2022-10-12T02:45:11.218Z,7.985
2022-10-12T02:46:10.835Z,7.97
2022-10-12T02:47:11.329Z,7.955
2022-10-12T02:48:11.320Z,7.94
2022-10-12T02:49:09.595Z,7.945
2022-10-12T02:50:11.805Z,7.93
2022-10-12T02:51:10.979Z,7.925
2022-10-12T02:52:10.330Z,7.9
2022-10-12T02:53:11.503Z,7.847
2022-10-12T02:54:10.143Z,7.839
2022-10-12T02:55:11.357Z,7.839
2022-10-12T02:56:11.210Z,7.856
2022-10-12T02:57:10.825Z,7.835
2022-10-12T02:58:11.691Z,7.8007
2022-10-12T02:59:10.335Z,7.775
2022-10-12T03:00:10.908Z,7.7663
2022-10-12T03:01:11.524Z,7.7684
2022-10-12T03:02:11.469Z,7.7663
2022-10-12T03:03:11.345Z,7.75
2022-10-12T03:04:10.950Z,7.75
2022-10-12T03:05:11.391Z,7.744
2022-10-12T03:06:10.324Z,7.74
2022-10-12T03:07:11.896Z,7.75
2022-10-12T03:08:10.898Z,7.745
2022-10-12T03:09:10.916Z,7.74
2022-10-12T03:10:11.793Z,7.745
2022-10-12T03:11:11.200Z,7.725
2022-10-12T03:12:11.729Z,7.725
2022-10-12T03:13:11.449Z,7.7
2022-10-12T03:14:10.552Z,7.699
2022-10-12T03:15:11.987Z,7.672
2022-10-12T03:16:11.192Z,7.666
2022-10-12T03:17:11.084Z,7.66
2022-10-12T03:18:11.641Z,7.655
2022-10-12T03:19:10.805Z,7.621
2022-10-12T03:20:10.937Z,7.621
2022-10-12T03:21:11.585Z,7.6316
2022-10-12T03:22:13.029Z,7.605
2022-10-12T03:23:11.236Z,7.6208
2022-10-12T03:24:10.999Z,7.615
2022-10-12T03:25:11.058Z,7.605
2022-10-12T03:26:10.844Z,7.61
2022-10-12T03:27:11.832Z,7.61
2022-10-12T03:28:10.484Z,7.626
2022-10-12T03:29:10.353Z,7.637
2022-10-12T03:30:11.650Z,7.643
2022-10-12T03:31:11.329Z,7.649
2022-10-12T03:32:10.671Z,7.595
2022-10-12T03:33:11.689Z,7.61
2022-10-12T03:34:10.353Z,7.605
2022-10-12T03:35:10.659Z,7.585
2022-10-12T03:36:11.873Z,7.575
2022-10-12T03:37:11.110Z,7.56
2022-10-12T03:38:10.542Z,7.55
2022-10-12T03:39:10.521Z,7.525
2022-10-12T03:40:11.096Z,7.515
2022-10-12T03:41:12.021Z,7.485
2022-10-12T03:42:11.224Z,7.455
2022-10-12T03:43:10.983Z,7.42
2022-10-12T03:44:10.694Z,7.4
2022-10-12T03:45:11.139Z,7.39
2022-10-12T03:46:11.036Z,7.39
2022-10-12T03:47:12.036Z,7.42
2022-10-12T03:48:11.318Z,7.425
2022-10-12T03:49:10.076Z,7.4
2022-10-12T03:50:11.287Z,7.395
2022-10-12T03:51:10.979Z,7.378
2022-10-12T03:52:10.279Z,7.356
2022-10-12T03:53:11.568Z,7.345
2022-10-12T03:54:10.519Z,7.373
2022-10-12T03:55:11.001Z,7.367
2022-10-12T03:56:11.496Z,7.3741
2022-10-12T03:57:10.930Z,7.3741
2022-10-12T03:58:09.830Z,7.385
2022-10-12T03:59:10.559Z,7.405
2022-10-12T04:00:11.156Z,7.4
2022-10-12T04:01:10.120Z,7.378
2022-10-12T04:02:16.538Z,7.405
2022-10-12T04:03:11.149Z,7.4
2022-10-12T04:04:09.031Z,7.42
2022-10-12T04:05:10.924Z,7.42
2022-10-12T04:06:11.151Z,7.425
2022-10-12T04:07:11.865Z,7.435
2022-10-12T04:08:10.586Z,7.44
2022-10-12T04:09:09.979Z,7.405
2022-10-12T04:10:11.814Z,7.42
2022-10-12T04:11:11.696Z,7.42
2022-10-12T04:12:11.057Z,7.4
2022-10-12T04:13:11.632Z,7.4
2022-10-12T04:14:10.488Z,7.38
2022-10-12T04:15:10.754Z,7.356
2022-10-12T04:16:11.314Z,7.356
2022-10-12T04:17:11.240Z,7.327
2022-10-12T04:18:11.124Z,7.3227
2022-10-12T04:19:10.884Z,7.306
2022-10-12T04:20:11.243Z,7.305
2022-10-12T04:21:11.062Z,7.2772
2022-10-12T04:22:11.406Z,7.277
2022-10-12T04:23:11.509Z,7.2718
2022-10-12T04:24:09.917Z,7.25
2022-10-12T04:25:11.795Z,7.26
2022-10-12T04:26:11.415Z,7.214
2022-10-12T04:27:11.057Z,7.19
2022-10-12T04:28:11.532Z,7.182
2022-10-12T04:29:10.274Z,7.166
2022-10-12T04:30:10.392Z,7.149
2022-10-12T04:31:11.545Z,7.166
2022-10-12T04:32:12.699Z,7.155
2022-10-12T04:33:10.872Z,7.132
2022-10-12T04:34:10.561Z,7.085
2022-10-12T04:35:10.782Z,7.06
2022-10-12T04:36:11.578Z,7.045
2022-10-12T04:37:11.342Z,7.045
2022-10-12T04:38:10.654Z,7.03
2022-10-12T04:39:10.541Z,7.01
2022-10-12T04:40:11.350Z,6.995
2022-10-12T04:41:10.807Z,6.965
2022-10-12T04:42:11.461Z,6.945
2022-10-12T04:43:11.283Z,6.945
2022-10-12T04:44:10.114Z,6.91
2022-10-12T04:45:11.166Z,6.895
2022-10-12T04:46:10.267Z,6.895
2022-10-12T04:47:10.758Z,6.8683
2022-10-12T04:48:10.782Z,6.85
2022-10-12T04:49:10.452Z,6.85
2022-10-12T04:50:11.661Z,6.85
2022-10-12T04:51:11.159Z,6.839
2022-10-12T04:52:10.943Z,6.827
2022-10-12T04:53:11.672Z,6.827
2022-10-12T04:54:10.164Z,6.795
2022-10-12T04:55:11.393Z,6.775
2022-10-12T04:56:11.809Z,6.755
2022-10-12T04:57:11.522Z,6.785
2022-10-12T04:58:10.807Z,6.795
2022-10-12T04:59:11.067Z,6.78
2022-10-12T05:00:11.141Z,6.775
2022-10-12T05:01:11.189Z,6.755
2022-10-12T05:02:11.623Z,6.775
2022-10-12T05:03:11.578Z,6.76
2022-10-12T05:04:10.004Z,6.725
2022-10-12T05:05:11.987Z,6.715
2022-10-12T05:06:10.920Z,6.6841
2022-10-12T05:07:10.106Z,6.66
2022-10-12T05:08:11.644Z,6.6783
2022-10-12T05:09:13.253Z,6.6891
2022-10-12T05:10:10.690Z,6.6841
2022-10-12T05:11:11.232Z,6.649
2022-10-12T05:12:10.185Z,6.626
2022-10-12T05:13:10.617Z,6.6
2022-10-12T05:14:10.442Z,6.6
2022-10-12T05:15:11.104Z,6.626
2022-10-12T05:16:10.446Z,6.6258
2022-10-12T05:17:11.495Z,6.6258
2022-10-12T05:18:10.139Z,6.643
2022-10-12T05:19:10.553Z,6.6316
2022-10-12T05:20:11.061Z,6.649
2022-10-12T05:21:11.378Z,6.655
2022-10-12T05:22:11.003Z,6.666
2022-10-12T05:23:10.535Z,6.638
2022-10-12T05:24:09.908Z,6.649
2022-10-12T05:25:12.753Z,6.693
2022-10-12T05:26:11.378Z,6.72
2022-10-12T05:27:10.467Z,6.705
2022-10-12T05:28:10.722Z,6.683
2022-10-12T05:29:10.478Z,6.6783
2022-10-12T05:30:10.078Z,6.671
2022-10-12T05:31:11.202Z,6.694
2022-10-12T05:32:10.549Z,6.6891
2022-10-12T05:33:10.438Z,6.6783
2022-10-12T05:34:10.404Z,6.672
2022-10-12T05:35:10.462Z,6.66
2022-10-12T05:36:11.353Z,6.643
2022-10-12T05:37:11.623Z,6.66
2022-10-12T05:38:10.521Z,6.683
2022-10-12T05:39:10.354Z,6.655
2022-10-12T05:40:10.818Z,6.672
2022-10-12T05:41:11.328Z,6.649
2022-10-12T05:42:11.546Z,6.6783
2022-10-12T05:43:10.675Z,6.62
2022-10-12T05:44:10.116Z,6.605
2022-10-12T05:45:11.456Z,6.6015
2022-10-12T05:46:14.384Z,6.5872
2022-10-12T05:47:11.122Z,6.575
2022-10-12T05:48:11.512Z,6.575
2022-10-12T05:49:10.230Z,6.585
2022-10-12T05:50:10.872Z,6.575
2022-10-12T05:51:10.923Z,6.58
2022-10-12T05:52:10.883Z,6.545
2022-10-12T05:53:11.234Z,6.555
2022-10-12T05:54:10.168Z,6.545
2022-10-12T05:55:11.368Z,6.53
2022-10-12T05:56:10.595Z,6.51
2022-10-12T05:57:11.463Z,6.515
2022-10-12T05:58:10.444Z,6.52
2022-10-12T05:59:10.525Z,6.51
2022-10-12T06:00:11.272Z,6.515
2022-10-12T06:01:11.102Z,6.535
2022-10-12T06:02:11.086Z,6.54
2022-10-12T06:03:11.341Z,6.535
2022-10-12T06:04:09.628Z,6.54
2022-10-12T06:05:11.744Z,6.51
2022-10-12T06:06:10.941Z,6.505
2022-10-12T06:07:11.128Z,6.515
2022-10-12T06:08:11.622Z,6.5
2022-10-12T06:09:10.566Z,6.515
2022-10-12T06:10:10.757Z,6.545
2022-10-12T06:11:10.917Z,6.57
2022-10-12T06:12:11.463Z,6.56
2022-10-12T06:13:11.482Z,6.545
2022-10-12T06:14:09.963Z,6.56
2022-10-12T06:15:11.636Z,6.565
2022-10-12T06:16:10.698Z,6.56
2022-10-12T06:17:10.989Z,6.58
2022-10-12T06:18:11.714Z,6.56
2022-10-12T06:19:10.471Z,6.575
2022-10-12T06:20:10.424Z,6.615
2022-10-12T06:21:33.618Z,6.6316
2022-10-12T06:22:10.894Z,6.655
2022-10-12T06:23:11.108Z,6.694
2022-10-12T06:24:10.167Z,6.72
2022-10-12T06:25:10.839Z,6.765
2022-10-12T06:26:11.433Z,6.775
2022-10-12T06:27:11.110Z,6.81
2022-10-12T06:28:10.752Z,6.816
2022-10-12T06:29:10.504Z,6.827
2022-10-12T06:30:10.418Z,6.839
2022-10-12T06:31:11.387Z,6.862
2022-10-12T06:32:10.975Z,6.889
2022-10-12T06:33:10.985Z,6.915
2022-10-12T06:34:10.516Z,6.96
2022-10-12T06:35:11.350Z,6.975
2022-10-12T06:36:09.899Z,7.015
2022-10-12T06:37:25.407Z,7.065
2022-10-12T06:38:11.255Z,7.085
2022-10-12T06:39:10.698Z,7.09
2022-10-12T06:40:11.611Z,7.126
2022-10-12T06:41:10.674Z,7.143
2022-10-12T06:42:11.390Z,7.183
2022-10-12T06:43:11.330Z,7.1841
2022-10-12T06:44:10.076Z,7.215
2022-10-12T06:45:11.771Z,7.24
2022-10-12T06:46:11.701Z,7.26
2022-10-12T06:47:10.921Z,7.3
2022-10-12T06:48:16.179Z,7.3216
2022-10-12T06:49:10.641Z,7.327
2022-10-12T06:50:10.314Z,7.385
2022-10-12T06:51:11.137Z,7.415
2022-10-12T06:52:11.199Z,7.435
2022-10-12T06:53:10.919Z,7.465
2022-10-12T06:54:10.696Z,7.5
2022-10-12T06:55:11.404Z,7.54
2022-10-12T06:56:10.044Z,7.585
2022-10-12T06:57:11.413Z,7.637
2022-10-12T06:58:11.051Z,7.649
2022-10-12T06:59:09.660Z,7.694
2022-10-12T07:00:10.959Z,7.74
2022-10-12T07:01:11.303Z,7.79
2022-10-12T07:02:11.305Z,7.839
2022-10-12T07:03:11.523Z,7.889
2022-10-12T07:04:10.164Z,7.945
2022-10-12T07:05:10.472Z,7.965
2022-10-12T07:06:11.006Z,8.023
2022-10-12T07:07:11.033Z,8.049
2022-10-12T07:08:10.171Z,8.105
2022-10-12T07:09:10.205Z,8.1783
2022-10-12T07:10:11.047Z,8.215
2022-10-12T07:11:11.807Z,8.2638
2022-10-12T07:12:11.569Z,8.3216
2022-10-12T07:13:11.359Z,8.36
2022-10-12T07:14:10.298Z,8.404
2022-10-12T07:15:11.250Z,8.45
2022-10-12T07:16:11.072Z,8.505
2022-10-12T07:17:11.883Z,8.54
2022-10-12T07:18:11.630Z,8.59
2022-10-12T07:19:09.965Z,8.637
2022-10-12T07:20:11.649Z,8.7
2022-10-12T07:21:11.538Z,8.77
2022-10-12T07:22:10.377Z,8.8158
2022-10-12T07:23:11.581Z,8.9
2022-10-12T07:24:10.400Z,8.935
2022-10-12T07:25:10.898Z,8.995
2022-10-12T07:26:10.831Z,9.04
2022-10-12T07:27:11.466Z,9.115
2022-10-12T07:28:11.050Z,9.1841
2022-10-12T07:29:10.800Z,9.26
2022-10-12T07:30:10.986Z,9.307
2022-10-12T07:31:11.006Z,9.395
2022-10-12T07:32:10.997Z,9.445
2022-10-12T07:33:10.745Z,9.525
2022-10-12T07:34:09.701Z,9.6
2022-10-12T07:35:11.277Z,9.6841
2022-10-12T07:36:14.428Z,9.745
2022-10-12T07:37:11.068Z,9.834
2022-10-12T07:38:11.455Z,9.925
2022-10-12T07:39:10.812Z,10
2022-10-12T07:40:10.635Z,10.055
2022-10-12T07:41:11.721Z,10.1
2022-10-12T07:42:13.479Z,10.166
2022-10-12T07:43:16.178Z,10.24
2022-10-12T07:44:10.864Z,10.333
2022-10-12T07:45:11.301Z,10.395
2022-10-12T07:46:10.433Z,10.46
2022-10-12T07:47:11.306Z,10.55
2022-10-12T07:48:11.000Z,10.6208
2022-10-12T07:49:11.116Z,10.71
2022-10-12T07:50:11.034Z,10.78
2022-10-12T07:51:10.730Z,10.8683
2022-10-12T07:52:11.393Z,10.925
2022-10-12T07:53:11.266Z,10.995
2022-10-12T07:54:10.067Z,11.045
2022-10-12T07:55:12.136Z,11.115
2022-10-12T07:56:11.443Z,11.177
2022-10-12T07:57:11.063Z,11.255
2022-10-12T07:58:11.319Z,11.29
2022-10-12T07:59:10.244Z,11.339
2022-10-12T08:00:10.609Z,11.395
2022-10-12T08:01:11.156Z,11.455
2022-10-12T08:02:10.998Z,11.49
2022-10-12T08:03:10.684Z,11.535
2022-10-12T08:04:10.731Z,11.585
2022-10-12T08:05:11.526Z,11.649
2022-10-12T08:06:10.871Z,11.7
2022-10-12T08:07:10.802Z,11.75
2022-10-12T08:08:11.504Z,11.811
2022-10-12T08:09:10.078Z,11.8791
2022-10-12T08:10:11.913Z,11.93
2022-10-12T08:11:10.999Z,12
2022-10-12T08:12:10.539Z,12.045
2022-10-12T08:13:11.714Z,12.127
2022-10-12T08:14:09.838Z,12.198
2022-10-12T08:15:10.645Z,12.295
2022-10-12T08:16:10.570Z,12.3741
2022-10-12T08:17:10.307Z,12.48
2022-10-12T08:18:10.680Z,12.575
2022-10-12T08:19:10.612Z,12.687
2022-10-12T08:20:11.117Z,12.796
2022-10-12T08:21:11.959Z,12.915
2022-10-12T08:22:11.112Z,13.035
2022-10-12T08:23:10.636Z,13.165
2022-10-12T08:24:10.478Z,13.25
2022-10-12T08:25:11.120Z,13.367
2022-10-12T08:26:10.920Z,13.47
2022-10-12T08:27:11.176Z,13.54
2022-10-12T08:28:10.328Z,13.5818
2022-10-12T08:29:10.609Z,13.703
2022-10-12T08:30:11.275Z,13.79
2022-10-12T08:31:11.091Z,13.848
2022-10-12T08:32:11.068Z,13.9307
2022-10-12T08:33:11.003Z,14.005
2022-10-12T08:34:09.796Z,14.085
2022-10-12T08:35:11.966Z,14.1307
2022-10-12T08:36:10.829Z,14.2227
2022-10-12T08:37:10.822Z,14.285
2022-10-12T08:38:11.772Z,14.35
2022-10-12T08:39:10.237Z,14.45
2022-10-12T08:40:10.475Z,14.56
2022-10-12T08:41:11.899Z,14.61
2022-10-12T08:42:11.018Z,14.703
2022-10-12T08:43:10.875Z,14.785
2022-10-12T08:44:12.183Z,14.775
2022-10-12T08:45:11.137Z,14.775
2022-10-12T08:46:11.128Z,14.833
2022-10-12T08:47:11.045Z,14.915
2022-10-12T08:48:11.180Z,14.985
2022-10-12T08:49:11.154Z,15.015
2022-10-12T08:50:11.177Z,15.08
2022-10-12T08:51:11.580Z,15.137
2022-10-12T08:52:10.959Z,15.177
2022-10-12T08:53:11.033Z,15.225
2022-10-12T08:54:10.900Z,15.245
2022-10-12T08:55:11.454Z,15.29
2022-10-12T08:56:10.840Z,15.3158
2022-10-12T08:57:11.461Z,15.333
2022-10-12T08:58:11.229Z,15.345
2022-10-12T08:59:10.208Z,15.355
2022-10-12T09:00:11.561Z,15.395
2022-10-12T09:01:14.120Z,15.43
2022-10-12T09:02:11.586Z,15.475
2022-10-12T09:03:11.105Z,15.48
2022-10-12T09:04:10.088Z,15.515
2022-10-12T09:05:11.999Z,15.545
2022-10-12T09:06:11.419Z,15.605
2022-10-12T09:07:10.732Z,15.698
2022-10-12T09:08:11.379Z,15.715
2022-10-12T09:09:10.259Z,15.795
2022-10-12T09:10:11.001Z,15.85
2022-10-12T09:11:11.579Z,15.845
2022-10-12T09:12:10.887Z,15.861
2022-10-12T09:13:11.058Z,15.935
2022-10-12T09:14:10.413Z,15.99
2022-10-12T09:15:11.605Z,16.06
2022-10-12T09:16:10.956Z,16.132
2022-10-12T09:17:11.440Z,16.177
2022-10-12T09:18:10.689Z,16.194
2022-10-12T09:19:09.862Z,16.1891
2022-10-12T09:20:10.912Z,16.225
2022-10-12T09:21:10.760Z,16.28
2022-10-12T09:22:12.141Z,16.29
2022-10-12T09:23:11.055Z,16.378
2022-10-12T09:24:09.790Z,16.43
2022-10-12T09:25:11.514Z,16.49
2022-10-12T09:26:10.996Z,16.53
2022-10-12T09:27:11.521Z,16.56
2022-10-12T09:28:11.335Z,16.6
2022-10-12T09:29:10.193Z,16.643
2022-10-12T09:30:10.997Z,16.695
2022-10-12T09:31:11.484Z,16.7
2022-10-12T09:32:10.681Z,16.745
2022-10-12T09:33:11.816Z,16.795
2022-10-12T09:34:11.417Z,16.81
2022-10-12T09:35:10.954Z,16.839
2022-10-12T09:36:11.588Z,16.92
2022-10-12T09:37:12.062Z,16.965
2022-10-12T09:38:10.723Z,17.005
2022-10-12T09:39:11.060Z,17.085
2022-10-12T09:40:11.484Z,17.16
2022-10-12T09:41:10.896Z,17.16
2022-10-12T09:42:11.530Z,17.165
2022-10-12T09:43:11.190Z,17.21
2022-10-12T09:44:10.383Z,17.23
2022-10-12T09:45:11.590Z,17.25
2022-10-12T09:46:11.160Z,17.295
2022-10-12T09:47:10.441Z,17.3227
2022-10-12T09:48:11.170Z,17.378
2022-10-12T09:49:10.550Z,17.475
2022-10-12T09:50:10.142Z,17.5327
2022-10-12T09:51:11.428Z,17.574
2022-10-12T09:52:10.966Z,17.5927
2022-10-12T09:53:10.656Z,17.638
2022-10-12T09:54:10.352Z,17.66
2022-10-12T09:55:10.615Z,17.715
2022-10-12T09:56:14.558Z,17.76
2022-10-12T09:57:11.392Z,17.79
2022-10-12T09:58:10.724Z,17.861
2022-10-12T09:59:10.609Z,17.899
2022-10-12T10:00:10.917Z,17.955
2022-10-12T10:01:12.285Z,18.0046
2022-10-12T10:02:11.692Z,18.0327
2022-10-12T10:03:10.793Z,18.035
2022-10-12T10:04:10.473Z,18.06
2022-10-12T10:05:10.436Z,18.03
2022-10-12T10:06:10.591Z,18.065
2022-10-12T10:07:11.211Z,18.095
2022-10-12T10:08:11.006Z,18.115
2022-10-12T10:09:10.238Z,18.194
2022-10-12T10:10:10.681Z,18.296
2022-10-12T10:11:11.452Z,18.373
2022-10-12T10:12:10.914Z,18.435
2022-10-12T10:13:11.384Z,18.42
2022-10-12T10:14:10.130Z,18.385
2022-10-12T10:15:11.291Z,18.38
2022-10-12T10:16:11.173Z,18.435
2022-10-12T10:17:10.621Z,18.495
2022-10-12T10:18:10.550Z,18.525
2022-10-12T10:19:10.575Z,18.585
2022-10-12T10:20:10.675Z,18.615
2022-10-12T10:21:11.380Z,18.661
2022-10-12T10:22:10.701Z,18.725
2022-10-12T10:23:11.849Z,18.78
2022-10-12T10:24:10.207Z,18.877
2022-10-12T10:25:11.297Z,18.935
2022-10-12T10:26:11.253Z,19.055
2022-10-12T10:27:11.308Z,19.09
2022-10-12T10:28:10.770Z,19.085
2022-10-12T10:29:10.026Z,19.055
2022-10-12T10:30:25.387Z,19.05
2022-10-12T10:31:11.085Z,19.05
2022-10-12T10:32:13.554Z,19.05
2022-10-12T10:33:11.398Z,19.1
2022-10-12T10:34:10.220Z,19.137
2022-10-12T10:35:11.637Z,19.26
2022-10-12T10:36:11.126Z,19.34
2022-10-12T10:37:11.096Z,19.4
2022-10-12T10:38:11.211Z,19.43
2022-10-12T10:39:10.507Z,19.485
2022-10-12T10:40:10.810Z,19.535
2022-10-12T10:41:11.464Z,19.58
2022-10-12T10:42:11.389Z,19.62
2022-10-12T10:43:10.689Z,19.639
2022-10-12T10:44:10.462Z,19.615
2022-10-12T10:45:11.730Z,19.632
2022-10-12T10:46:10.810Z,19.632
2022-10-12T10:47:11.628Z,19.671
2022-10-12T10:48:11.109Z,19.705
2022-10-12T10:49:10.734Z,19.735
2022-10-12T10:50:11.504Z,19.755
2022-10-12T10:51:11.261Z,19.811
2022-10-12T10:52:10.501Z,19.856
2022-10-12T10:53:11.946Z,19.9
2022-10-12T10:54:09.988Z,19.925
2022-10-12T10:55:11.795Z,19.97
2022-10-12T10:56:11.432Z,20.01
2022-10-12T10:57:11.171Z,20.02
2022-10-12T10:58:12.432Z,20.045
2022-10-12T10:59:10.584Z,20.035
2022-10-12T11:00:37.359Z,20.06
2022-10-12T11:01:11.735Z,20.04
2022-10-12T11:02:11.313Z,20.02
2022-10-12T11:03:11.974Z,20.02
2022-10-12T11:04:10.567Z,20.005
2022-10-12T11:05:11.433Z,20.025
2022-10-12T11:06:11.333Z,20.085
2022-10-12T11:07:11.638Z,20.095
2022-10-12T11:08:10.606Z,20.095
2022-10-12T11:09:10.866Z,20.137
2022-10-12T11:10:10.931Z,20.137
2022-10-12T11:11:11.794Z,20.16
2022-10-12T11:12:10.989Z,20.208
2022-10-12T11:13:11.287Z,20.2336
2022-10-12T11:14:10.902Z,20.259
2022-10-12T11:15:11.711Z,20.3
2022-10-12T11:16:11.115Z,20.3163
2022-10-12T11:17:11.725Z,20.347
2022-10-12T11:18:11.256Z,20.395
2022-10-12T11:19:10.283Z,20.44
2022-10-12T11:20:14.609Z,20.518
2022-10-12T11:21:11.566Z,20.549
2022-10-12T11:22:10.122Z,20.595
2022-10-12T11:23:11.350Z,20.595
2022-10-12T11:24:10.062Z,20.59
2022-10-12T11:25:10.872Z,20.61
2022-10-12T11:26:11.695Z,20.655
2022-10-12T11:27:11.130Z,20.682
2022-10-12T11:28:10.251Z,20.735
2022-10-12T11:29:11.567Z,20.745
2022-10-12T11:30:10.630Z,20.755
2022-10-12T11:31:10.994Z,20.755
2022-10-12T11:32:11.445Z,20.704
2022-10-12T11:33:10.913Z,20.6891
2022-10-12T11:34:13.446Z,20.655
2022-10-12T11:35:11.478Z,20.682
2022-10-12T11:36:11.261Z,20.715
2022-10-12T11:37:19.878Z,20.735
2022-10-12T11:38:15.065Z,20.74
2022-10-12T11:39:10.398Z,20.74
2022-10-12T11:40:10.341Z,20.76
2022-10-12T11:41:33.922Z,20.797
2022-10-12T11:42:21.281Z,20.856
2022-10-12T11:43:10.274Z,20.93
2022-10-12T11:44:11.122Z,21
2022-10-12T11:45:10.670Z,21.02
2022-10-12T11:46:11.101Z,21.03
2022-10-12T11:47:11.480Z,21.1
2022-10-12T11:48:10.375Z,21.155
2022-10-12T11:49:16.346Z,21.19
2022-10-12T11:50:11.461Z,21.194
2022-10-12T11:51:11.014Z,21.204
2022-10-12T11:52:11.123Z,21.225
2022-10-12T11:53:11.748Z,21.225
2022-10-12T11:54:10.253Z,21.27
2022-10-12T11:55:11.800Z,21.29
2022-10-12T11:56:11.338Z,21.3216
2022-10-12T11:57:11.187Z,21.333
2022-10-12T11:58:13.706Z,21.367
2022-10-12T11:59:10.575Z,21.367
2022-10-12T12:00:10.850Z,21.405
2022-10-12T12:01:11.694Z,21.405
2022-10-12T12:02:11.419Z,21.39
2022-10-12T12:03:10.850Z,21.405
2022-10-12T12:04:36.452Z,21.43
2022-10-12T12:05:16.090Z,21.42
2022-10-12T12:06:10.961Z,21.425
2022-10-12T12:07:11.374Z,21.45
2022-10-12T12:08:11.099Z,21.405
2022-10-12T12:09:10.002Z,21.42
2022-10-12T12:10:10.933Z,21.44
2022-10-12T12:11:11.355Z,21.435
2022-10-12T12:12:10.893Z,21.465
2022-10-12T12:13:11.466Z,21.5
2022-10-12T12:14:10.182Z,21.545
2022-10-12T12:15:11.906Z,21.545
2022-10-12T12:16:11.157Z,21.59
2022-10-12T12:17:11.446Z,21.58
2022-10-12T12:18:10.245Z,21.575
2022-10-12T12:19:10.340Z,21.595
2022-10-12T12:20:10.486Z,21.61
2022-10-12T12:21:11.528Z,21.6258
2022-10-12T12:22:11.051Z,21.649
2022-10-12T12:23:11.341Z,21.649
2022-10-12T12:24:10.321Z,21.687
2022-10-12T12:25:11.068Z,21.73
2022-10-12T12:26:16.289Z,21.79
2022-10-12T12:27:11.451Z,21.85
2022-10-12T12:28:10.215Z,21.9
2022-10-12T12:29:10.749Z,21.915
2022-10-12T12:30:11.493Z,21.965
2022-10-12T12:31:10.772Z,22.04
2022-10-12T12:32:11.935Z,22.07
2022-10-12T12:33:11.071Z,22.1316
2022-10-12T12:34:10.795Z,22.198
2022-10-12T12:35:11.204Z,22.275
2022-10-12T12:36:10.911Z,22.3045
2022-10-12T12:37:11.589Z,22.357
2022-10-12T12:38:11.908Z,22.43
2022-10-12T12:39:10.080Z,22.505
2022-10-12T12:40:11.362Z,22.578
2022-10-12T12:41:11.436Z,22.615
2022-10-12T12:42:10.842Z,22.6891
2022-10-12T12:43:11.546Z,22.75
2022-10-12T12:44:10.531Z,22.8045
2022-10-12T12:45:10.862Z,22.845
2022-10-12T12:46:11.501Z,22.8791
2022-10-12T12:47:43.819Z,22.935
2022-10-12T12:48:11.746Z,22.985
2022-10-12T12:49:10.100Z,23.06